Time;durP1;ratioP1;P1;durP2;ratioP2;P2;SDS_P1;SDS_P2;PMS_P1;PMS_P2;Temp;Humidity;BMP_temperature;BMP_pressure;BME280_temperature;BME280_humidity;BME280_pressure;Samples;Min_cycle;Max_cycle;Signal;HPM_P1;HPM_P2
2021/11/16 00:01:36;;;;;;;35.53;15.93;;;5.40;99.90;;;3.57;100.00;101921.25;4834697;28;20035;-80
2021/11/16 00:04:11;;;;;;;37.40;15.13;;;5.30;99.90;;;3.57;100.00;101920.38;4880691;28;20047;-80
2021/11/16 00:06:38;;;;;;;38.63;16.00;;;5.30;99.90;;;3.57;100.00;101917.78;4919920;28;20035;-79
2021/11/16 00:09:06;;;;;;;37.67;15.95;;;5.30;99.90;;;3.61;100.00;101920.38;4875234;28;20377;-80
2021/11/16 00:11:35;;;;;;;32.75;14.90;;;5.30;99.90;;;3.63;100.00;101928.22;4854632;28;20023;-80
2021/11/16 00:14:06;;;;;;;35.75;13.90;;;5.30;99.90;;;3.60;100.00;101923.84;4862309;28;20537;-80
2021/11/16 00:16:32;;;;;;;39.38;15.73;;;5.30;99.90;;;3.56;100.00;101923.84;4886023;28;20401;-80
2021/11/16 00:19:01;;;;;;;33.67;14.63;;;5.30;99.90;;;3.58;100.00;101919.50;4862877;28;20036;-80
2021/11/16 00:21:32;;;;;;;37.47;15.23;;;5.40;99.90;;;3.62;100.00;101910.84;4869465;28;20031;-80
2021/11/16 00:24:02;;;;;;;35.15;14.57;;;5.30;99.90;;;3.59;100.00;101903.03;4874507;28;20047;-80
2021/11/16 00:26:31;;;;;;;34.58;14.65;;;5.40;99.90;;;3.65;100.00;101897.78;4875908;28;20058;-80
2021/11/16 00:29:01;;;;;;;31.73;14.23;;;5.30;99.90;;;3.60;100.00;101905.63;4870418;28;20031;-80
2021/11/16 00:31:27;;;;;;;40.63;15.00;;;5.30;99.90;;;3.57;100.00;101900.41;4887642;28;20035;-80
2021/11/16 00:33:54;;;;;;;33.10;15.43;;;5.30;99.90;;;3.56;100.00;101895.19;4815306;28;20043;-79
2021/11/16 00:36:28;;;;;;;35.42;15.18;;;5.30;99.90;;;3.59;100.00;101909.09;4876673;28;20047;-80
2021/11/16 00:38:55;;;;;;;32.83;15.85;;;5.30;99.90;;;3.57;100.00;101900.41;4869649;28;20066;-80
2021/11/16 00:41:22;;;;;;;32.58;15.02;;;5.20;99.90;;;3.54;100.00;101900.38;4884103;28;20106;-80
2021/11/16 00:43:54;;;;;;;36.42;15.52;;;5.30;99.90;;;3.54;100.00;101902.13;4846147;28;20115;-80
2021/11/16 00:46:21;;;;;;;32.92;15.50;;;5.30;99.90;;;3.56;100.00;101908.22;4878912;28;20111;-80
2021/11/16 00:48:47;;;;;;;32.83;15.02;;;5.30;99.90;;;3.61;100.00;101916.94;4907902;28;21426;-79
2021/11/16 00:51:13;;;;;;;33.90;15.05;;;5.30;99.90;;;3.61;100.00;101912.56;4855013;28;20378;-80
2021/11/16 00:53:41;;;;;;;40.72;16.33;;;5.30;99.90;;;3.60;100.00;101910.81;4869692;28;20027;-80
2021/11/16 00:56:11;;;;;;;39.33;16.35;;;5.30;99.90;;;3.62;100.00;101916.03;4865523;28;20035;-80
2021/11/16 00:58:38;;;;;;;39.22;16.42;;;;;;;3.60;100.00;101905.63;4912858;28;20937;-80
2021/11/16 01:01:06;;;;;;;35.83;15.40;;;5.30;99.90;;;3.52;100.00;101893.44;4933496;28;20035;-80
2021/11/16 01:03:35;;;;;;;35.10;15.13;;;5.20;99.90;;;3.45;100.00;101882.16;4907489;28;20031;-79
2021/11/16 01:06:03;;;;;;;42.53;16.80;;;5.20;99.90;;;3.40;100.00;101886.50;4862729;28;21086;-80
2021/11/16 01:08:29;;;;;;;37.65;16.25;;;5.20;99.90;;;3.46;100.00;101889.97;4906621;28;20108;-80
2021/11/16 01:10:58;;;;;;;38.78;16.45;;;5.20;99.90;;;3.47;100.00;101889.09;4864717;28;20399;-80
2021/11/16 01:13:34;;;;;;;34.58;15.48;;;5.20;99.90;;;3.42;100.00;101884.78;4836943;28;20063;-80
2021/11/16 01:16:01;;;;;;;39.35;16.15;;;5.10;99.90;;;3.42;100.00;101880.41;4877915;28;20054;-78
2021/11/16 01:18:29;;;;;;;43.08;16.70;;;5.20;99.90;;;3.43;100.00;101873.47;4880469;28;20038;-80
2021/11/16 01:21:00;;;;;;;44.38;17.52;;;5.20;99.90;;;3.46;100.00;101870.88;4919993;28;20030;-80
2021/11/16 01:23:27;;;;;;;40.00;16.67;;;5.20;99.90;;;3.47;100.00;101870.00;4891322;28;20050;-80
2021/11/16 01:25:55;;;;;;;41.78;17.38;;;5.20;99.90;;;3.47;100.00;101872.63;4880472;28;20133;-80
2021/11/16 01:28:29;;;;;;;39.63;17.70;;;5.20;99.90;;;3.47;100.00;101872.63;4874379;28;20027;-80
2021/11/16 01:31:00;;;;;;;39.28;16.80;;;5.20;99.90;;;3.43;100.00;101865.66;4914091;28;20061;-80
2021/11/16 01:33:40;;;;;;;36.33;15.77;;;5.10;99.90;;;3.37;100.00;101865.66;4918875;28;20047;-80
2021/11/16 01:36:06;;;;;;;37.58;15.48;;;5.10;99.90;;;3.41;100.00;101868.28;4918165;28;20034;-80
2021/11/16 01:38:32;;;;;;;41.25;17.55;;;5.10;99.90;;;3.40;100.00;101865.66;4920322;28;20058;-80
2021/11/16 01:40:59;;;;;;;38.63;16.75;;;;;;;3.39;100.00;101859.59;4877095;28;20509;-79
2021/11/16 01:43:25;;;;;;;40.50;17.73;;;5.10;99.90;;;3.39;100.00;101854.41;4899953;28;20047;-80
2021/11/16 01:45:51;;;;;;;37.53;16.48;;;5.10;99.90;;;3.37;100.00;101844.81;4867857;28;20136;-79
2021/11/16 01:48:18;;;;;;;48.33;17.75;;;5.10;99.90;;;3.32;100.00;101842.22;4887385;28;20038;-80
2021/11/16 01:50:45;;;;;;;49.10;18.15;;;5.10;99.90;;;3.35;100.00;101843.94;4887642;28;20160;-80
2021/11/16 01:53:14;;;;;;;56.00;17.70;;;5.00;99.90;;;3.33;100.00;101830.94;4892241;28;20034;-80
2021/11/16 01:55:40;;;;;;;42.80;19.73;;;5.10;99.90;;;3.38;100.00;101838.75;4905617;28;20046;-80
2021/11/16 01:58:07;;;;;;;37.72;16.75;;;5.10;99.90;;;3.35;100.00;101830.94;4881448;28;20495;-80
2021/11/16 02:00:42;;;;;;;45.75;18.27;;;5.10;99.90;;;3.37;100.00;101826.59;4927573;28;20404;-80
2021/11/16 02:03:11;;;;;;;46.83;17.67;;;5.10;99.90;;;3.38;100.00;101834.41;4906534;28;20466;-80
2021/11/16 02:05:47;;;;;;;47.05;18.55;;;5.10;99.90;;;3.32;100.00;101826.59;4908354;28;20047;-80
2021/11/16 02:08:15;;;;;;;39.72;17.58;;;4.20;99.90;;;3.38;100.00;101821.41;4902439;28;20035;-80
2021/11/16 02:10:46;;;;;;;49.63;18.85;;;5.10;99.90;;;3.36;100.00;101815.31;4918070;28;20054;-78
2021/11/16 02:13:12;;;;;;;46.72;19.60;;;5.10;99.90;;;3.35;100.00;101812.72;4895035;28;20043;-80
2021/11/16 02:15:39;;;;;;;54.35;20.27;;;5.10;99.90;;;3.34;100.00;101804.03;4888454;28;20115;-80
2021/11/16 02:18:08;;;;;;;51.33;19.90;;;5.10;99.90;;;3.36;100.00;101807.50;4898599;28;20066;-80
2021/11/16 02:20:36;;;;;;;48.05;18.38;;;5.10;99.90;;;3.41;100.00;101794.50;4916531;28;20027;-79
2021/11/16 02:23:06;;;;;;;50.40;17.70;;;5.10;99.90;;;3.38;100.00;101816.19;4896786;28;20198;-80
2021/11/16 02:25:34;;;;;;;46.55;18.33;;;5.10;99.90;;;3.38;100.00;101808.38;4911028;28;20402;-80
2021/11/16 02:28:01;;;;;;;48.95;20.23;;;5.10;99.90;;;3.37;100.00;101801.44;4924390;28;20402;-80
2021/11/16 02:30:34;;;;;;;46.08;18.50;;;5.10;99.90;;;3.36;100.00;101799.69;4913102;28;20520;-79
2021/11/16 02:33:01;;;;;;;59.58;20.40;;;5.10;99.90;;;3.36;100.00;101799.69;4909875;28;20039;-80
2021/11/16 02:35:27;;;;;;;45.25;19.58;;;5.10;99.90;;;3.35;100.00;101800.59;4918756;28;20399;-79
2021/11/16 02:37:56;;;;;;;53.40;19.88;;;5.00;99.90;;;3.31;100.00;101793.63;4887439;28;20027;-79
2021/11/16 02:40:27;;;;;;;47.30;19.30;;;5.00;99.90;;;3.35;100.00;101765.84;4900394;28;20711;-80
2021/11/16 02:42:54;;;;;;;51.72;19.48;;;5.10;99.90;;;3.32;100.00;101795.34;4878362;28;20053;-80
2021/11/16 02:45:22;;;;;;;49.33;18.52;;;5.00;99.90;;;3.31;100.00;101792.78;4887565;28;20115;-79
2021/11/16 02:47:54;;;;;;;48.55;19.02;;;5.10;99.90;;;3.33;100.00;101802.31;4908370;28;20019;-80
2021/11/16 02:50:20;;;;;;;51.47;19.48;;;5.00;99.90;;;3.34;100.00;101787.56;4867778;28;20027;-80
2021/11/16 02:52:48;;;;;;;56.38;19.48;;;5.10;99.90;;;3.37;100.00;101787.53;4865727;28;20043;-79
2021/11/16 02:55:16;;;;;;;54.17;20.75;;;5.10;99.90;;;3.37;100.00;101782.34;4875645;28;20480;-79
2021/11/16 02:57:45;;;;;;;49.80;20.13;;;5.10;99.90;;;3.38;100.00;101786.69;4920948;28;20487;-80
2021/11/16 03:00:16;;;;;;;54.03;21.38;;;5.10;99.90;;;3.33;100.00;101770.22;4878740;28;20035;-80
2021/11/16 03:02:54;;;;;;;48.80;20.48;;;5.10;99.90;;;3.38;100.00;101778.88;4870740;28;20038;-80
2021/11/16 03:05:21;;;;;;;49.20;19.17;;;5.20;99.90;;;3.40;100.00;101777.16;4897365;28;20479;-79
2021/11/16 03:07:56;;;;;;;52.95;20.15;;;5.10;99.90;;;3.37;100.00;101767.59;4867844;28;20462;-79
2021/11/16 03:10:26;;;;;;;60.45;20.92;;;5.10;99.90;;;3.37;100.00;101757.19;4858243;28;20031;-80
2021/11/16 03:13:02;;;;;;;52.92;19.35;;;;;;;3.39;100.00;101760.66;4881246;28;20207;-80
2021/11/16 03:15:28;;;;;;;53.93;19.97;;;5.10;99.90;;;3.37;100.00;101754.59;4876415;28;20024;-80
2021/11/16 03:17:54;;;;;;;46.42;20.33;;;5.10;99.90;;;3.40;100.00;101757.19;4895300;28;20492;-80
2021/11/16 03:20:28;;;;;;;45.08;19.27;;;5.10;99.90;;;3.37;100.00;101751.09;4888452;28;20093;-80
2021/11/16 03:23:07;;;;;;;51.28;20.38;;;5.10;99.90;;;3.36;100.00;101744.16;4863268;28;20055;-80
2021/11/16 03:25:35;;;;;;;53.63;20.38;;;5.10;99.90;;;3.41;100.00;101748.50;4911299;28;20137;-80
2021/11/16 03:28:06;;;;;;;53.75;21.20;;;5.10;99.90;;;3.39;100.00;101744.16;4910680;28;20023;-79
2021/11/16 03:30:34;;;;;;;57.65;21.52;;;5.10;99.90;;;3.43;100.00;101733.72;4890865;28;20447;-80
2021/11/16 03:33:01;;;;;;;59.47;20.70;;;5.20;99.90;;;3.43;100.00;101743.28;4906736;28;20664;-80
2021/11/16 03:35:28;;;;;;;55.08;19.92;;;5.10;99.90;;;3.37;100.00;101728.56;4898638;28;20105;-79
2021/11/16 03:37:59;;;;;;;60.05;22.58;;;5.10;99.90;;;3.38;100.00;101732.88;4898665;28;20035;-80
2021/11/16 03:40:28;;;;;;;63.25;20.60;;;5.10;99.90;;;3.43;100.00;101733.72;4894827;28;20027;-80
2021/11/16 03:42:55;;;;;;;63.78;22.13;;;5.10;99.90;;;3.40;100.00;101730.28;4918945;28;20232;-80
2021/11/16 03:45:29;;;;;;;61.10;21.67;;;5.10;99.90;;;3.37;100.00;101727.66;4910613;28;20770;-80
2021/11/16 03:48:00;;;;;;;61.72;22.38;;;5.10;99.90;;;3.33;100.00;101721.63;4892257;28;20519;-80
2021/11/16 03:50:31;;;;;;;59.60;22.00;;;5.10;99.90;;;3.36;100.00;101729.41;4929631;28;20027;-80
2021/11/16 03:53:01;;;;;;;62.08;22.58;;;5.10;99.90;;;3.37;100.00;101730.25;4881344;28;20122;-80
2021/11/16 03:55:36;;;;;;;50.10;21.30;;;5.10;99.90;;;3.37;100.00;101725.94;4853709;28;20024;-80
2021/11/16 03:58:07;;;;;;;66.53;22.42;;;5.10;99.90;;;3.41;100.00;101734.59;4837819;28;20040;-79
2021/11/16 04:00:56;;;;;;;52.92;21.88;;;5.10;99.90;;;3.38;100.00;101732.88;4859304;28;20089;-80
2021/11/16 04:03:26;;;;;;;59.78;22.73;;;5.10;99.90;;;3.39;100.00;101729.41;4879303;28;20030;-79
2021/11/16 04:05:54;;;;;;;65.05;23.50;;;5.10;99.90;;;3.39;100.00;101733.75;4886697;28;20515;-80
2021/11/16 04:08:20;;;;;;;68.30;22.38;;;5.10;99.90;;;3.35;100.00;101738.09;4906041;28;20089;-80
2021/11/16 04:10:54;;;;;;;59.75;21.65;;;5.10;99.90;;;3.38;100.00;101732.88;4885084;28;20459;-80
2021/11/16 04:13:20;;;;;;;60.92;22.70;;;5.10;99.90;;;3.38;100.00;101730.28;4906863;28;20035;-80
2021/11/16 04:15:50;;;;;;;62.72;22.25;;;5.10;99.90;;;3.36;100.00;101729.41;4912109;28;20149;-79
2021/11/16 04:18:21;;;;;;;59.75;22.27;;;5.10;99.90;;;3.37;100.00;101727.66;4911277;28;20107;-80
2021/11/16 04:20:53;;;;;;;61.85;21.92;;;5.10;99.90;;;3.37;100.00;101725.06;4869557;28;20031;-79
2021/11/16 04:23:25;;;;;;;64.30;23.05;;;5.10;99.90;;;3.38;100.00;101721.59;4904737;28;20079;-80
2021/11/16 04:25:53;;;;;;;74.18;22.83;;;5.10;99.90;;;3.36;100.00;101719.00;4877915;28;20496;-80
2021/11/16 04:28:22;;;;;;;70.03;22.20;;;5.10;99.90;;;3.42;100.00;101712.94;4896317;28;20051;-80
2021/11/16 04:30:49;;;;;;;59.00;22.13;;;5.10;99.90;;;3.42;100.00;101711.19;4877380;28;20185;-80
2021/11/16 04:33:18;;;;;;;63.53;23.98;;;5.10;99.90;;;3.43;100.00;101704.22;4891857;28;20511;-80
2021/11/16 04:35:45;;;;;;;65.82;23.05;;;5.20;99.90;;;3.41;100.00;101704.25;4849888;28;20050;-80
2021/11/16 04:38:24;;;;;;;64.38;23.95;;;5.10;99.90;;;3.41;100.00;101704.25;4882688;28;20082;-78
2021/11/16 04:40:55;;;;;;;64.43;22.67;;;5.10;99.90;;;3.44;100.00;101705.97;4913799;28;20066;-80
2021/11/16 04:43:25;;;;;;;75.60;25.33;;;5.20;99.90;;;3.58;100.00;101713.75;4842555;28;20122;-80
2021/11/16 04:45:55;;;;;;;73.10;26.17;;;5.20;99.90;;;3.49;100.00;101689.47;4886896;28;20042;-80
2021/11/16 04:54:01;;;;;;;73.03;24.25;;;5.20;99.90;;;3.47;100.00;101683.38;4929213;28;20043;-80
2021/11/16 05:04:36;;;;;;;75.40;29.42;;;5.20;99.90;;;3.46;100.00;101684.28;4903622;28;20358;-79
2021/11/16 05:07:17;;;;;;;81.30;26.80;;;5.20;99.90;;;3.49;100.00;101684.25;4901653;28;20028;-80
2021/11/16 05:09:55;;;;;;;87.57;27.73;;;5.20;99.90;;;3.52;100.00;101695.53;4885171;28;20107;-80
2021/11/16 05:12:32;;;;;;;90.65;30.83;;;5.30;99.90;;;3.57;100.00;101691.19;4874424;28;20042;-80
2021/11/16 05:15:07;;;;;;;87.47;30.35;;;5.20;99.90;;;3.58;100.00;101685.09;4916787;28;20415;-79
2021/11/16 05:17:34;;;;;;;93.55;31.00;;;5.20;99.90;;;3.52;100.00;101673.00;4867113;28;20038;-80
2021/11/16 05:20:00;;;;;;;96.93;31.30;;;5.20;99.90;;;3.57;100.00;101675.56;4888217;28;20034;-79
2021/11/16 05:22:26;;;;;;;103.00;32.55;;;5.20;99.90;;;3.57;100.00;101672.97;4836581;28;20119;-79
2021/11/16 05:24:57;;;;;;;95.68;32.25;;;5.20;99.90;;;3.60;100.00;101668.59;4877664;28;20070;-80
2021/11/16 05:27:23;;;;;;;92.15;33.05;;;5.20;99.90;;;3.57;100.00;101663.41;4894274;28;20026;-80
2021/11/16 05:29:49;;;;;;;100.00;32.40;;;5.20;99.90;;;3.54;100.00;101657.34;4896356;28;20475;-80
2021/11/16 05:32:16;;;;;;;101.70;33.83;;;5.10;99.90;;;3.44;100.00;101648.69;4900285;28;20502;-79
2021/11/16 05:34:52;;;;;;;103.07;33.58;;;5.10;99.90;;;3.47;100.00;101664.28;4906787;28;20146;-79
2021/11/16 05:37:18;;;;;;;;;;;5.10;99.90;;;3.49;100.00;101662.56;4866191;28;20031;-80
2021/11/16 05:39:44;;;;;;;99.23;32.77;;;5.20;99.90;;;3.59;100.00;101668.63;4890433;28;19965;-80
2021/11/16 05:42:10;;;;;;;109.63;32.70;;;5.20;99.90;;;3.57;100.00;101667.75;4873515;28;21446;-79
2021/11/16 05:44:46;;;;;;;110.57;31.73;;;;;;;3.59;100.00;101666.03;4839916;28;20048;-80
2021/11/16 05:47:11;;;;;;;95.60;32.10;;;5.20;99.90;;;3.54;100.00;101662.53;4901237;28;20035;-80
2021/11/16 05:49:37;;;;;;;99.47;34.55;;;5.20;99.90;;;3.51;100.00;101649.53;4882421;28;20074;-80
2021/11/16 05:52:13;;;;;;;105.38;33.17;;;5.20;99.90;;;3.46;100.00;101647.81;4876734;28;20033;-79
2021/11/16 05:54:42;;;;;;;89.15;31.13;;;5.20;99.90;;;3.44;100.00;101654.75;4855684;28;20416;-81
2021/11/16 05:57:17;;;;;;;100.47;33.72;;;5.20;99.90;;;3.41;100.00;101653.91;4882667;28;20046;-83
2021/11/16 05:59:43;;;;;;;102.63;33.05;;;5.20;99.90;;;3.59;100.00;101666.03;4853683;28;20073;-80
2021/11/16 06:02:12;;;;;;;108.13;34.28;;;5.20;99.90;;;3.48;100.00;101651.28;4873446;28;20151;-80
2021/11/16 06:04:43;;;;;;;93.68;32.47;;;5.20;99.90;;;3.44;100.00;101644.34;4860936;28;20062;-79
2021/11/16 06:07:10;;;;;;;103.43;30.90;;;5.10;99.90;;;3.42;100.00;101656.50;4887273;28;20035;-80
2021/11/16 06:09:36;;;;;;;90.53;31.63;;;5.10;99.90;;;3.43;100.00;101642.59;4861629;28;20424;-79
2021/11/16 06:12:13;;;;;;;110.68;34.17;;;5.20;99.90;;;3.49;100.00;101645.19;4884148;28;20088;-80
2021/11/16 06:14:39;;;;;;;98.50;33.45;;;5.20;99.90;;;3.54;100.00;101646.91;4867653;28;20080;-80
2021/11/16 06:17:06;;;;;;;133.38;40.97;;;5.20;99.90;;;3.49;100.00;101647.78;4893506;28;20504;-80
2021/11/16 06:19:43;;;;;;;119.30;37.10;;;5.20;99.90;;;3.52;100.00;101649.56;4922374;28;20042;-80
2021/11/16 06:22:22;;;;;;;;;;;;;;;;;;;;;
2021/11/16 06:24:48;;;;;;;131.02;40.90;;;5.20;99.90;;;3.49;100.00;101641.72;4905663;28;20133;-79
2021/11/16 06:27:23;;;;;;;106.25;35.10;;;5.20;99.90;;;3.46;100.00;101637.41;4877997;28;20480;-80
2021/11/16 06:29:49;;;;;;;109.18;35.92;;;5.20;99.90;;;3.47;100.00;101652.13;4893136;28;20032;-80
2021/11/16 06:32:16;;;;;;;101.93;34.90;;;5.20;99.90;;;3.46;100.00;101644.34;4870040;28;20146;-79
2021/11/16 06:34:42;;;;;;;86.47;30.73;;;5.20;99.90;;;3.45;100.00;101651.28;4859396;28;20428;-79
2021/11/16 06:37:15;;;;;;;99.57;32.10;;;5.20;99.90;;;3.46;100.00;101658.22;4869481;28;20040;-80
2021/11/16 06:39:42;;;;;;;95.47;31.88;;;5.20;99.90;;;3.47;100.00;101662.56;4863497;28;20031;-80
2021/11/16 06:42:13;;;;;;;102.22;33.08;;;5.30;99.90;;;3.51;100.00;101670.38;4878578;28;20381;-80
2021/11/16 06:44:44;;;;;;;90.47;31.33;;;5.20;99.90;;;3.54;100.00;101675.56;4840576;28;20359;-80
2021/11/16 06:47:13;;;;;;;111.60;31.90;;;5.20;99.90;;;3.47;100.00;101665.16;4887753;28;20076;-80
2021/11/16 06:49:55;;;;;;;97.65;31.45;;;5.20;99.90;;;3.51;100.00;101670.38;4877532;28;20275;-80
2021/11/16 06:52:27;;;;;;;96.85;31.98;;;5.20;99.90;;;3.53;100.00;101676.44;4883278;28;20045;-80
2021/11/16 06:54:53;;;;;;;98.10;31.33;;;5.30;99.90;;;3.51;100.00;101668.63;4874382;28;20050;-80
2021/11/16 06:57:19;;;;;;;95.45;32.13;;;5.30;99.90;;;3.57;100.00;101670.38;4855483;28;20459;-80
2021/11/16 06:59:45;;;;;;;111.30;32.70;;;5.20;99.90;;;3.54;100.00;101667.75;4915965;28;20043;-80
2021/11/16 07:02:11;;;;;;;108.57;33.38;;;5.20;99.90;;;3.49;100.00;101666.03;4898052;28;20043;-80
2021/11/16 07:04:41;;;;;;;111.53;31.73;;;5.20;99.90;;;3.49;100.00;101668.63;4896113;28;20205;-80
2021/11/16 07:07:08;;;;;;;104.28;32.83;;;;;;;3.56;100.00;101692.91;4893741;28;20118;-80
2021/11/16 07:09:43;;;;;;;96.93;31.02;;;5.20;99.90;;;3.55;100.00;101682.53;4850420;28;20042;-80
2021/11/16 07:12:24;;;;;;;99.40;31.30;;;5.30;99.90;;;3.54;100.00;101681.63;4858581;28;20058;-80
2021/11/16 07:14:54;;;;;;;104.75;32.58;;;5.30;99.90;;;3.55;100.00;101680.78;4877913;28;20039;-80
2021/11/16 07:17:20;;;;;;;94.65;32.30;;;5.30;99.90;;;3.57;100.00;101680.78;4871319;28;20027;-79
2021/11/16 07:19:59;;;;;;;111.85;34.92;;;5.30;99.90;;;3.62;100.00;101687.69;4838378;28;20423;-79
2021/11/16 07:22:31;;;;;;;105.97;32.03;;;5.30;99.90;;;3.68;100.00;101694.66;4889177;28;20631;-80
2021/11/16 07:25:09;;;;;;;98.85;32.05;;;5.30;99.90;;;3.65;100.00;101689.41;4872063;28;20050;-80
2021/11/16 07:27:40;;;;;;;92.82;32.15;;;5.30;99.90;;;3.62;100.00;101684.22;4874297;28;20462;-80
2021/11/16 07:30:13;;;;;;;107.25;31.58;;;5.30;99.90;;;3.66;100.00;101670.34;4857594;28;20036;-78
2021/11/16 07:33:10;;;;;;;97.65;31.27;;;5.30;99.90;;;3.70;100.00;101688.56;4849947;28;20051;-80
2021/11/16 07:35:43;;;;;;;;;;;5.40;99.90;;;3.68;100.00;101674.66;4796304;29;20049;-79
2021/11/16 07:38:22;;;;;;;96.05;29.90;;;5.30;99.90;;;3.61;100.00;101677.31;4857021;28;19921;-80
2021/11/16 07:40:48;;;;;;;104.88;31.30;;;5.30;99.90;;;3.65;100.00;101698.13;4876149;28;20052;-79
2021/11/16 07:43:21;;;;;;;94.10;30.42;;;5.40;99.90;;;3.73;100.00;101703.31;4843218;28;20115;-80
2021/11/16 07:45:53;;;;;;;114.85;32.47;;;5.40;99.90;;;3.75;100.00;101696.34;4868016;28;20099;-80
2021/11/16 07:48:33;;;;;;;110.88;32.50;;;5.40;99.90;;;3.67;100.00;101698.09;4872380;28;20039;-79
2021/11/16 07:51:10;;;;;;;107.43;30.60;;;;;;;3.71;100.00;101710.25;4903159;28;20435;-80
2021/11/16 07:53:41;;;;;;;106.07;30.67;;;5.40;99.90;;;3.77;100.00;101710.25;4910363;28;20131;-80
2021/11/16 07:56:20;;;;;;;103.05;30.92;;;5.40;99.90;;;3.74;100.00;101710.25;4875945;28;20042;-80
2021/11/16 07:58:58;;;;;;;105.30;31.50;;;5.40;99.90;;;3.77;100.00;101705.03;4888651;28;20185;-80
2021/11/16 08:04:28;;;;;;;102.25;31.15;;;5.40;99.90;;;3.83;100.00;101705.00;4918675;28;20032;-79
2021/11/16 08:14:56;;;;;;;87.90;27.23;;;5.50;99.90;;;4.03;100.00;101696.25;4850066;28;20043;-80
2021/11/16 08:17:44;;;;;;;94.75;29.63;;;5.60;99.90;;;3.89;100.00;101683.28;4855714;28;20130;-80
2021/11/16 08:20:16;;;;;;;95.45;28.00;;;5.50;99.90;;;3.81;100.00;101672.88;4899934;28;20040;-80
2021/11/16 08:22:50;;;;;;;94.28;27.08;;;5.50;99.90;;;3.82;100.00;101672.03;4865088;28;20163;-79
2021/11/16 08:25:21;;;;;;;84.28;27.00;;;5.50;99.90;;;3.85;100.00;101665.94;4851948;28;20107;-80
2021/11/16 08:27:57;;;;;;;90.30;26.38;;;5.50;99.90;;;3.90;100.00;101659.81;4939271;28;20042;-80
2021/11/16 08:30:24;;;;;;;94.78;27.20;;;5.50;99.90;;;3.86;100.00;101668.50;4872389;28;20118;-80
2021/11/16 08:33:01;;;;;;;87.07;26.33;;;5.60;99.90;;;4.03;100.00;101678.00;4879482;28;20397;-78
2021/11/16 08:35:29;;;;;;;78.00;25.85;;;5.60;99.90;;;4.00;100.00;101672.84;4894609;28;20480;-80
2021/11/16 08:38:05;;;;;;;88.75;26.80;;;5.60;99.90;;;3.99;100.00;101671.06;4884077;28;20547;-79
2021/11/16 08:40:44;;;;;;;77.50;25.48;;;5.70;99.90;;;4.00;100.00;101668.47;4884609;28;20071;-80
2021/11/16 08:43:17;;;;;;;72.60;24.65;;;5.60;99.90;;;4.01;100.00;101664.97;4892536;28;20114;-80
2021/11/16 08:45:50;;;;;;;92.07;27.63;;;5.70;99.90;;;4.04;100.00;101669.31;4843461;28;20051;-80
2021/11/16 08:48:28;;;;;;;81.05;25.58;;;5.60;99.90;;;4.01;100.00;101659.78;4863873;28;20078;-80
2021/11/16 08:51:02;;;;;;;87.45;26.02;;;5.70;99.90;;;4.02;100.00;101663.28;4900961;28;20035;-80
2021/11/16 08:53:40;;;;;;;82.07;26.30;;;5.70;99.90;;;3.99;100.00;101664.13;4903757;28;20059;-80
2021/11/16 08:56:26;;;;;;;80.05;26.05;;;5.60;99.90;;;3.94;100.00;101663.28;4871457;28;20031;-79
2021/11/16 08:58:54;;;;;;;78.03;25.60;;;;;;;3.97;100.00;101668.47;4853445;28;20114;-82
2021/11/16 09:01:35;;;;;;;91.53;26.25;;;5.60;99.90;;;4.04;100.00;101677.13;4885804;28;20045;-79
2021/11/16 09:04:14;;;;;;;;;;;;;;;;;;;;;
2021/11/16 09:07:01;;;;;;;92.05;27.30;;;5.60;99.90;;;3.93;100.00;101666.78;4864176;28;20720;-79
2021/11/16 09:10:06;;;;;;;;;;;5.60;99.90;;;4.00;100.00;101670.22;4849596;28;20094;-79
2021/11/16 09:13:00;;;;;;;92.03;25.08;;;5.60;99.90;;;4.04;100.00;101671.91;4889833;28;19948;-79
2021/11/16 09:16:16;;;;;;;82.95;25.13;;;5.60;99.90;;;3.93;100.00;101660.69;4886190;28;20491;-80
2021/11/16 09:19:39;;;;;;;85.13;24.83;;;5.60;99.90;;;3.99;100.00;101669.34;4874031;28;20090;-79
2021/11/16 09:22:41;;;;;;;91.80;25.20;;;5.60;99.90;;;3.97;100.00;101662.41;4900659;28;20048;-80
2021/11/16 09:25:29;;;;;;;86.55;25.05;;;5.60;99.90;;;3.98;100.00;101656.34;4846736;28;20131;-80
2021/11/16 09:28:39;;;;;;;285.05;167.18;;;5.60;99.90;;;3.99;100.00;101658.91;4888793;28;20036;-80
2021/11/16 09:31:45;;;;;;;103.30;30.15;;;;;;;3.94;100.00;101672.84;4886725;28;20451;-79
2021/11/16 09:34:30;;;;;;;103.75;31.65;;;5.50;99.90;;;3.95;100.00;101678.03;4870001;28;20121;-80
2021/11/16 09:37:22;;;;;;;112.88;33.17;;;5.60;99.90;;;3.95;100.00;101670.22;4892729;28;20035;-79
2021/11/16 09:40:26;;;;;;;102.88;33.97;;;5.60;99.90;;;4.00;100.00;101665.00;4883570;28;20035;-79
2021/11/16 09:43:00;;;;;;;112.32;34.22;;;5.60;99.90;;;3.95;100.00;101662.41;4902695;28;20398;-79
2021/11/16 09:45:47;;;;;;;108.20;34.08;;;5.60;99.90;;;4.03;100.00;101667.59;4879579;28;20468;-80
2021/11/16 09:48:26;;;;;;;108.18;30.83;;;5.60;99.90;;;4.03;100.00;101667.59;4878067;28;20043;-79
2021/11/16 09:51:15;;;;;;;104.10;31.50;;;5.60;99.90;;;3.96;100.00;101660.69;4891642;28;20043;-80
2021/11/16 09:54:32;;;;;;;100.88;30.42;;;5.60;99.90;;;3.99;100.00;101660.66;4842844;28;20039;-80
2021/11/16 09:57:39;;;;;;;111.28;29.42;;;5.60;99.90;;;4.04;100.00;101667.59;4851849;28;20350;-80
2021/11/16 10:00:36;;;;;;;;;;;5.60;99.90;;;3.98;100.00;101656.34;4857048;28;20043;-80
2021/11/16 10:03:30;;;;;;;100.35;29.35;;;5.60;99.90;;;4.06;100.00;101670.16;4863757;28;19952;-80
2021/11/16 10:06:30;;;;;;;118.03;33.92;;;5.70;99.90;;;4.10;100.00;101666.69;4855453;28;20047;-80
2021/11/16 10:09:42;;;;;;;108.50;32.97;;;5.70;99.90;;;4.08;100.00;101664.09;4878943;28;20056;-80
2021/11/16 10:12:42;;;;;;;116.07;34.63;;;5.70;99.90;;;4.10;100.00;101656.25;4876254;28;20047;-80
2021/11/16 10:15:48;;;;;;;118.57;35.90;;;5.70;99.90;;;4.09;100.00;101660.59;4870511;28;21114;-80
2021/11/16 10:18:57;;;;;;;109.40;33.25;;;5.70;99.90;;;4.12;100.00;101662.31;4853910;28;20519;-80
2021/11/16 10:21:23;;;;;;;116.38;36.80;;;5.80;99.90;;;4.12;100.00;101657.13;4891882;28;20108;-80
2021/11/16 10:24:03;;;;;;;110.88;37.00;;;5.80;99.90;;;4.22;100.00;101664.03;4883026;28;20044;-79
2021/11/16 10:26:37;;;;;;;119.22;36.80;;;5.80;99.90;;;4.20;100.00;101662.31;4895352;28;20043;-80
2021/11/16 10:29:17;;;;;;;108.43;35.47;;;;;;;4.21;100.00;101662.31;4878847;28;20035;-80
2021/11/16 10:31:58;;;;;;;110.03;35.10;;;5.80;99.90;;;4.17;100.00;101657.97;4884805;28;20035;-80
2021/11/16 10:34:40;;;;;;;120.10;35.15;;;5.80;99.90;;;4.16;100.00;101651.00;4886213;28;22258;-80
2021/11/16 10:37:15;;;;;;;110.45;33.35;;;5.80;99.90;;;4.19;100.00;101639.69;4852420;28;20027;-80
2021/11/16 10:39:41;;;;;;;123.18;35.97;;;5.80;99.90;;;4.20;100.00;101642.31;4849035;28;20043;-80
2021/11/16 10:42:20;;;;;;;117.75;34.15;;;5.90;99.90;;;4.25;100.00;101642.28;4869282;28;20070;-80
2021/11/16 10:45:01;;;;;;;99.82;35.95;;;5.90;99.90;;;4.27;100.00;101630.09;4871791;28;20036;-79
2021/11/16 10:47:42;;;;;;;104.88;34.40;;;5.80;99.90;;;4.20;100.00;101621.44;4881937;28;20432;-80
2021/11/16 10:50:12;;;;;;;111.82;34.35;;;5.80;99.90;;;4.24;100.00;101615.34;4868728;28;20035;-79
2021/11/16 10:53:00;;;;;;;113.65;35.97;;;5.90;99.90;;;4.25;100.00;101613.59;4885381;28;20054;-80
2021/11/16 10:55:58;;;;;;;117.03;34.50;;;5.90;99.90;;;4.34;100.00;101607.47;4893541;28;20102;-80
2021/11/16 10:58:42;;;;;;;116.47;35.25;;;5.90;99.90;;;4.35;100.00;101596.16;4888734;28;20097;-79
2021/11/16 11:01:17;;;;;;;118.85;36.20;;;6.00;99.90;;;4.34;100.00;101597.03;4880223;28;20102;-80
2021/11/16 11:03:58;;;;;;;108.78;33.22;;;5.90;99.90;;;4.33;100.00;101590.94;4863536;28;20391;-80